sensor_id;sensor_type;location;lat;lon;timestamp;temperature;humidity
9271;DHT22;4673;53.458;9.940;2023-05-29T00:00:42;11.50;63.60
9271;DHT22;4673;53.458;9.940;2023-05-29T00:03:08;11.50;63.20
9271;DHT22;4673;53.458;9.940;2023-05-29T00:05:35;11.50;63.30
9271;DHT22;4673;53.458;9.940;2023-05-29T00:08:01;11.40;62.80
9271;DHT22;4673;53.458;9.940;2023-05-29T00:10:27;11.40;62.90
9271;DHT22;4673;53.458;9.940;2023-05-29T00:12:52;11.40;63.30
9271;DHT22;4673;53.458;9.940;2023-05-29T00:15:18;11.30;63.60
9271;DHT22;4673;53.458;9.940;2023-05-29T00:17:44;11.30;64.00
9271;DHT22;4673;53.458;9.940;2023-05-29T00:20:10;11.30;64.00
9271;DHT22;4673;53.458;9.940;2023-05-29T00:22:37;11.20;64.20
9271;DHT22;4673;53.458;9.940;2023-05-29T00:25:07;11.20;63.80
9271;DHT22;4673;53.458;9.940;2023-05-29T00:27:33;11.30;64.20
9271;DHT22;4673;53.458;9.940;2023-05-29T00:29:59;11.20;63.90
9271;DHT22;4673;53.458;9.940;2023-05-29T00:32:26;11.20;64.20
9271;DHT22;4673;53.458;9.940;2023-05-29T00:34:53;11.20;64.30
9271;DHT22;4673;53.458;9.940;2023-05-29T00:37:18;11.10;64.50
9271;DHT22;4673;53.458;9.940;2023-05-29T00:39:50;11.20;64.90
9271;DHT22;4673;53.458;9.940;2023-05-29T00:42:15;11.10;64.70
9271;DHT22;4673;53.458;9.940;2023-05-29T00:44:41;11.10;64.80
9271;DHT22;4673;53.458;9.940;2023-05-29T00:47:07;11.10;64.70
9271;DHT22;4673;53.458;9.940;2023-05-29T00:49:34;11.10;64.60
9271;DHT22;4673;53.458;9.940;2023-05-29T00:52:01;11.10;64.60
9271;DHT22;4673;53.458;9.940;2023-05-29T00:54:29;11.10;64.80
9271;DHT22;4673;53.458;9.940;2023-05-29T00:56:57;11.00;64.50
9271;DHT22;4673;53.458;9.940;2023-05-29T00:59:23;10.90;65.00
9271;DHT22;4673;53.458;9.940;2023-05-29T01:01:49;10.90;64.30
9271;DHT22;4673;53.458;9.940;2023-05-29T01:04:16;10.80;64.70
9271;DHT22;4673;53.458;9.940;2023-05-29T01:06:42;10.70;65.20
9271;DHT22;4673;53.458;9.940;2023-05-29T01:09:09;10.70;65.60
9271;DHT22;4673;53.458;9.940;2023-05-29T01:14:41;10.60;65.90
9271;DHT22;4673;53.458;9.940;2023-05-29T01:17:11;10.50;65.90
9271;DHT22;4673;53.458;9.940;2023-05-29T01:22:12;10.30;65.80
9271;DHT22;4673;53.458;9.940;2023-05-29T01:27:40;10.40;64.80
9271;DHT22;4673;53.458;9.940;2023-05-29T01:30:08;10.30;64.50
9271;DHT22;4673;53.458;9.940;2023-05-29T01:32:34;10.30;64.30
9271;DHT22;4673;53.458;9.940;2023-05-29T01:35:01;10.20;64.70
9271;DHT22;4673;53.458;9.940;2023-05-29T01:37:27;10.20;64.80
9271;DHT22;4673;53.458;9.940;2023-05-29T01:39:53;10.00;64.50
9271;DHT22;4673;53.458;9.940;2023-05-29T01:42:19;10.00;64.70
9271;DHT22;4673;53.458;9.940;2023-05-29T01:44:45;9.90;65.30
9271;DHT22;4673;53.458;9.940;2023-05-29T01:47:12;9.70;65.90
9271;DHT22;4673;53.458;9.940;2023-05-29T01:49:39;9.60;66.30
9271;DHT22;4673;53.458;9.940;2023-05-29T01:52:05;9.50;66.90
9271;DHT22;4673;53.458;9.940;2023-05-29T01:54:31;9.40;67.40
9271;DHT22;4673;53.458;9.940;2023-05-29T01:56:57;9.30;67.60
9271;DHT22;4673;53.458;9.940;2023-05-29T01:59:23;9.20;67.90
9271;DHT22;4673;53.458;9.940;2023-05-29T02:01:48;9.20;68.30
9271;DHT22;4673;53.458;9.940;2023-05-29T02:04:14;9.10;68.70
9271;DHT22;4673;53.458;9.940;2023-05-29T02:06:40;9.00;68.90
9271;DHT22;4673;53.458;9.940;2023-05-29T02:09:06;9.00;69.20
9271;DHT22;4673;53.458;9.940;2023-05-29T02:11:32;9.00;69.20
9271;DHT22;4673;53.458;9.940;2023-05-29T02:13:57;9.00;69.60
9271;DHT22;4673;53.458;9.940;2023-05-29T02:16:23;9.00;69.50
9271;DHT22;4673;53.458;9.940;2023-05-29T02:18:49;8.90;69.40
9271;DHT22;4673;53.458;9.940;2023-05-29T02:21:14;8.80;69.60
9271;DHT22;4673;53.458;9.940;2023-05-29T02:23:40;8.80;70.00
9271;DHT22;4673;53.458;9.940;2023-05-29T02:26:06;8.70;69.90
9271;DHT22;4673;53.458;9.940;2023-05-29T02:28:31;8.70;70.40
9271;DHT22;4673;53.458;9.940;2023-05-29T02:30:57;8.80;70.60
9271;DHT22;4673;53.458;9.940;2023-05-29T02:33:23;8.60;70.60
9271;DHT22;4673;53.458;9.940;2023-05-29T02:35:48;8.60;70.90
9271;DHT22;4673;53.458;9.940;2023-05-29T02:38:14;8.50;71.00
9271;DHT22;4673;53.458;9.940;2023-05-29T02:40:40;8.50;71.30
9271;DHT22;4673;53.458;9.940;2023-05-29T02:43:08;8.50;71.40
9271;DHT22;4673;53.458;9.940;2023-05-29T02:45:33;8.40;71.30
9271;DHT22;4673;53.458;9.940;2023-05-29T02:47:59;8.40;71.80
9271;DHT22;4673;53.458;9.940;2023-05-29T02:50:25;8.30;72.20
9271;DHT22;4673;53.458;9.940;2023-05-29T02:52:50;8.30;72.50
9271;DHT22;4673;53.458;9.940;2023-05-29T02:55:16;8.20;72.80
9271;DHT22;4673;53.458;9.940;2023-05-29T02:57:42;8.20;73.10
9271;DHT22;4673;53.458;9.940;2023-05-29T03:00:08;8.20;73.50
9271;DHT22;4673;53.458;9.940;2023-05-29T03:02:34;8.20;73.60
9271;DHT22;4673;53.458;9.940;2023-05-29T03:05:00;8.20;73.40
9271;DHT22;4673;53.458;9.940;2023-05-29T03:07:26;8.10;73.60
9271;DHT22;4673;53.458;9.940;2023-05-29T03:09:52;8.10;74.00
9271;DHT22;4673;53.458;9.940;2023-05-29T03:12:18;8.00;74.10
9271;DHT22;4673;53.458;9.940;2023-05-29T03:14:44;8.00;74.50
9271;DHT22;4673;53.458;9.940;2023-05-29T03:17:10;7.90;75.00
9271;DHT22;4673;53.458;9.940;2023-05-29T03:19:36;7.90;75.30
9271;DHT22;4673;53.458;9.940;2023-05-29T03:22:02;7.90;75.70
9271;DHT22;4673;53.458;9.940;2023-05-29T03:24:28;8.00;75.80
9271;DHT22;4673;53.458;9.940;2023-05-29T03:26:54;8.00;75.90
9271;DHT22;4673;53.458;9.940;2023-05-29T03:29:20;7.90;75.90
9271;DHT22;4673;53.458;9.940;2023-05-29T03:31:45;8.00;76.00
9271;DHT22;4673;53.458;9.940;2023-05-29T03:34:11;8.00;76.00
9271;DHT22;4673;53.458;9.940;2023-05-29T03:36:37;7.90;76.10
9271;DHT22;4673;53.458;9.940;2023-05-29T03:39:03;8.00;76.50
9271;DHT22;4673;53.458;9.940;2023-05-29T03:41:28;8.00;76.60
9271;DHT22;4673;53.458;9.940;2023-05-29T03:43:54;8.10;76.50
9271;DHT22;4673;53.458;9.940;2023-05-29T03:46:20;8.10;75.70
9271;DHT22;4673;53.458;9.940;2023-05-29T03:48:46;8.10;75.80
9271;DHT22;4673;53.458;9.940;2023-05-29T03:51:11;8.10;76.30
9271;DHT22;4673;53.458;9.940;2023-05-29T03:53:37;8.20;75.80
9271;DHT22;4673;53.458;9.940;2023-05-29T03:56:03;8.20;75.90
9271;DHT22;4673;53.458;9.940;2023-05-29T03:58:28;8.30;75.70
9271;DHT22;4673;53.458;9.940;2023-05-29T04:00:54;8.40;75.40
9271;DHT22;4673;53.458;9.940;2023-05-29T04:03:20;8.40;75.20
9271;DHT22;4673;53.458;9.940;2023-05-29T04:05:46;8.70;75.00
9271;DHT22;4673;53.458;9.940;2023-05-29T04:08:11;8.70;72.70
9271;DHT22;4673;53.458;9.940;2023-05-29T04:10:39;8.70;73.00
9271;DHT22;4673;53.458;9.940;2023-05-29T04:13:04;8.80;72.40
9271;DHT22;4673;53.458;9.940;2023-05-29T04:15:31;8.70;71.60
9271;DHT22;4673;53.458;9.940;2023-05-29T04:17:59;8.80;72.50
9271;DHT22;4673;53.458;9.940;2023-05-29T04:20:24;8.80;71.70
9271;DHT22;4673;53.458;9.940;2023-05-29T04:22:50;8.90;72.20
9271;DHT22;4673;53.458;9.940;2023-05-29T04:25:16;9.00;71.20
9271;DHT22;4673;53.458;9.940;2023-05-29T04:27:43;8.90;71.00
9271;DHT22;4673;53.458;9.940;2023-05-29T04:30:14;8.90;71.40
9271;DHT22;4673;53.458;9.940;2023-05-29T04:32:40;9.00;71.10
9271;DHT22;4673;53.458;9.940;2023-05-29T04:35:06;9.10;71.50
9271;DHT22;4673;53.458;9.940;2023-05-29T04:37:32;9.10;70.60
9271;DHT22;4673;53.458;9.940;2023-05-29T04:40:04;9.20;71.00
9271;DHT22;4673;53.458;9.940;2023-05-29T04:42:37;9.20;70.20
9271;DHT22;4673;53.458;9.940;2023-05-29T04:45:04;9.20;70.90
9271;DHT22;4673;53.458;9.940;2023-05-29T04:47:32;9.30;71.00
9271;DHT22;4673;53.458;9.940;2023-05-29T04:50:01;9.50;70.10
9271;DHT22;4673;53.458;9.940;2023-05-29T04:52:27;9.90;71.10
9271;DHT22;4673;53.458;9.940;2023-05-29T04:54:54;10.40;68.30
9271;DHT22;4673;53.458;9.940;2023-05-29T04:57:19;10.30;66.30
9271;DHT22;4673;53.458;9.940;2023-05-29T04:59:45;10.60;65.70
9271;DHT22;4673;53.458;9.940;2023-05-29T05:02:10;10.60;65.10
9271;DHT22;4673;53.458;9.940;2023-05-29T05:04:36;10.50;64.10
9271;DHT22;4673;53.458;9.940;2023-05-29T05:07:02;10.50;64.80
9271;DHT22;4673;53.458;9.940;2023-05-29T05:09:28;10.40;64.30
9271;DHT22;4673;53.458;9.940;2023-05-29T05:11:54;10.20;64.60
9271;DHT22;4673;53.458;9.940;2023-05-29T05:14:21;10.10;65.30
9271;DHT22;4673;53.458;9.940;2023-05-29T05:16:47;10.20;66.20
9271;DHT22;4673;53.458;9.940;2023-05-29T05:19:12;10.30;65.30
9271;DHT22;4673;53.458;9.940;2023-05-29T05:21:38;10.30;64.70
9271;DHT22;4673;53.458;9.940;2023-05-29T05:24:04;10.20;65.70
9271;DHT22;4673;53.458;9.940;2023-05-29T05:26:30;10.20;65.80
9271;DHT22;4673;53.458;9.940;2023-05-29T05:28:55;10.30;65.10
9271;DHT22;4673;53.458;9.940;2023-05-29T05:31:21;10.10;64.90
9271;DHT22;4673;53.458;9.940;2023-05-29T05:33:47;9.90;65.40
9271;DHT22;4673;53.458;9.940;2023-05-29T05:36:13;10.00;65.90
9271;DHT22;4673;53.458;9.940;2023-05-29T05:38:39;9.90;65.30
9271;DHT22;4673;53.458;9.940;2023-05-29T05:41:05;9.80;66.20
9271;DHT22;4673;53.458;9.940;2023-05-29T05:43:30;9.90;67.00
9271;DHT22;4673;53.458;9.940;2023-05-29T05:45:56;10.20;66.90
9271;DHT22;4673;53.458;9.940;2023-05-29T05:48:21;10.30;66.00
9271;DHT22;4673;53.458;9.940;2023-05-29T05:50:47;10.20;64.60
9271;DHT22;4673;53.458;9.940;2023-05-29T05:53:13;10.10;65.20
9271;DHT22;4673;53.458;9.940;2023-05-29T05:55:38;10.30;65.20
9271;DHT22;4673;53.458;9.940;2023-05-29T05:58:04;10.30;64.60
9271;DHT22;4673;53.458;9.940;2023-05-29T06:00:29;10.50;64.90
9271;DHT22;4673;53.458;9.940;2023-05-29T06:02:55;10.60;63.00
9271;DHT22;4673;53.458;9.940;2023-05-29T06:05:21;10.40;63.00
9271;DHT22;4673;53.458;9.940;2023-05-29T06:07:46;10.30;63.80
9271;DHT22;4673;53.458;9.940;2023-05-29T06:10:12;10.40;63.80
9271;DHT22;4673;53.458;9.940;2023-05-29T06:12:38;10.40;63.30
9271;DHT22;4673;53.458;9.940;2023-05-29T06:15:04;10.30;63.30
9271;DHT22;4673;53.458;9.940;2023-05-29T06:17:30;10.10;64.50
9271;DHT22;4673;53.458;9.940;2023-05-29T06:19:55;10.20;64.30
9271;DHT22;4673;53.458;9.940;2023-05-29T06:22:21;10.40;63.50
9271;DHT22;4673;53.458;9.940;2023-05-29T06:24:47;10.60;62.80
9271;DHT22;4673;53.458;9.940;2023-05-29T06:27:12;10.80;61.60
9271;DHT22;4673;53.458;9.940;2023-05-29T06:29:38;10.80;60.60
9271;DHT22;4673;53.458;9.940;2023-05-29T06:32:04;10.70;60.50
9271;DHT22;4673;53.458;9.940;2023-05-29T06:34:30;10.80;60.90
9271;DHT22;4673;53.458;9.940;2023-05-29T06:36:55;10.90;59.80
9271;DHT22;4673;53.458;9.940;2023-05-29T06:39:21;11.00;59.50
9271;DHT22;4673;53.458;9.940;2023-05-29T06:41:47;11.00;59.70
9271;DHT22;4673;53.458;9.940;2023-05-29T06:44:13;11.10;58.90
9271;DHT22;4673;53.458;9.940;2023-05-29T06:46:38;11.00;57.40
9271;DHT22;4673;53.458;9.940;2023-05-29T06:49:04;11.10;58.60
9271;DHT22;4673;53.458;9.940;2023-05-29T06:51:29;11.20;57.90
9271;DHT22;4673;53.458;9.940;2023-05-29T06:53:56;11.40;57.00
9271;DHT22;4673;53.458;9.940;2023-05-29T06:56:21;11.50;56.20
9271;DHT22;4673;53.458;9.940;2023-05-29T06:58:47;11.60;55.80
9271;DHT22;4673;53.458;9.940;2023-05-29T07:01:13;11.70;55.40
9271;DHT22;4673;53.458;9.940;2023-05-29T07:03:39;11.70;54.40
9271;DHT22;4673;53.458;9.940;2023-05-29T07:06:05;11.50;55.10
9271;DHT22;4673;53.458;9.940;2023-05-29T07:08:31;11.70;55.80
9271;DHT22;4673;53.458;9.940;2023-05-29T07:10:57;11.80;54.50
9271;DHT22;4673;53.458;9.940;2023-05-29T07:13:24;12.00;54.60
9271;DHT22;4673;53.458;9.940;2023-05-29T07:15:50;12.10;53.40
9271;DHT22;4673;53.458;9.940;2023-05-29T07:18:16;12.00;52.20
9271;DHT22;4673;53.458;9.940;2023-05-29T07:20:42;12.10;52.20
9271;DHT22;4673;53.458;9.940;2023-05-29T07:23:07;11.90;52.90
9271;DHT22;4673;53.458;9.940;2023-05-29T07:25:33;12.00;54.50
9271;DHT22;4673;53.458;9.940;2023-05-29T07:27:59;12.20;53.30
9271;DHT22;4673;53.458;9.940;2023-05-29T07:30:24;12.30;52.20
9271;DHT22;4673;53.458;9.940;2023-05-29T07:32:50;12.50;51.20
9271;DHT22;4673;53.458;9.940;2023-05-29T07:35:16;12.50;51.30
9271;DHT22;4673;53.458;9.940;2023-05-29T07:37:41;12.10;50.30
9271;DHT22;4673;53.458;9.940;2023-05-29T07:40:07;11.80;51.10
9271;DHT22;4673;53.458;9.940;2023-05-29T07:42:34;11.70;53.10
9271;DHT22;4673;53.458;9.940;2023-05-29T07:45:00;11.70;53.20
9271;DHT22;4673;53.458;9.940;2023-05-29T07:47:25;11.80;52.80
9271;DHT22;4673;53.458;9.940;2023-05-29T07:49:51;11.80;51.90
9271;DHT22;4673;53.458;9.940;2023-05-29T07:52:18;11.80;53.20
9271;DHT22;4673;53.458;9.940;2023-05-29T07:54:44;12.00;54.60
9271;DHT22;4673;53.458;9.940;2023-05-29T07:57:09;12.20;53.10
9271;DHT22;4673;53.458;9.940;2023-05-29T07:59:36;12.40;52.70
9271;DHT22;4673;53.458;9.940;2023-05-29T08:02:02;12.60;51.50
9271;DHT22;4673;53.458;9.940;2023-05-29T08:04:29;12.70;50.50
9271;DHT22;4673;53.458;9.940;2023-05-29T08:06:55;12.60;51.00
9271;DHT22;4673;53.458;9.940;2023-05-29T08:09:21;12.70;50.70
9271;DHT22;4673;53.458;9.940;2023-05-29T08:11:46;12.70;51.50
9271;DHT22;4673;53.458;9.940;2023-05-29T08:14:14;12.60;51.60
9271;DHT22;4673;53.458;9.940;2023-05-29T08:16:40;12.60;51.60
9271;DHT22;4673;53.458;9.940;2023-05-29T08:19:06;12.60;52.10
9271;DHT22;4673;53.458;9.940;2023-05-29T08:21:31;12.70;51.90
9271;DHT22;4673;53.458;9.940;2023-05-29T08:23:58;12.90;50.80
9271;DHT22;4673;53.458;9.940;2023-05-29T08:26:24;12.90;50.30
9271;DHT22;4673;53.458;9.940;2023-05-29T08:28:50;12.70;47.40
9271;DHT22;4673;53.458;9.940;2023-05-29T08:31:15;12.70;48.80
9271;DHT22;4673;53.458;9.940;2023-05-29T08:33:41;12.90;49.20
9271;DHT22;4673;53.458;9.940;2023-05-29T08:36:07;12.90;46.70
9271;DHT22;4673;53.458;9.940;2023-05-29T08:38:34;13.00;46.50
9271;DHT22;4673;53.458;9.940;2023-05-29T08:41:00;13.20;48.20
9271;DHT22;4673;53.458;9.940;2023-05-29T08:43:30;13.30;47.10
9271;DHT22;4673;53.458;9.940;2023-05-29T08:45:59;13.40;48.10
9271;DHT22;4673;53.458;9.940;2023-05-29T08:48:27;13.40;48.00
9271;DHT22;4673;53.458;9.940;2023-05-29T08:50:55;13.60;46.30
9271;DHT22;4673;53.458;9.940;2023-05-29T08:53:21;13.80;45.60
9271;DHT22;4673;53.458;9.940;2023-05-29T08:55:48;14.10;44.50
9271;DHT22;4673;53.458;9.940;2023-05-29T08:58:17;13.80;41.80
9271;DHT22;4673;53.458;9.940;2023-05-29T09:00:45;13.70;44.40
9271;DHT22;4673;53.458;9.940;2023-05-29T09:03:11;13.80;43.90
9271;DHT22;4673;53.458;9.940;2023-05-29T09:05:39;13.70;43.60
9271;DHT22;4673;53.458;9.940;2023-05-29T09:08:09;13.80;43.00
9271;DHT22;4673;53.458;9.940;2023-05-29T09:10:36;14.00;43.20
9271;DHT22;4673;53.458;9.940;2023-05-29T09:13:02;13.80;41.50
9271;DHT22;4673;53.458;9.940;2023-05-29T09:15:28;13.80;42.50
9271;DHT22;4673;53.458;9.940;2023-05-29T09:17:55;14.00;42.30
9271;DHT22;4673;53.458;9.940;2023-05-29T09:20:23;14.10;40.60
9271;DHT22;4673;53.458;9.940;2023-05-29T09:25:27;13.90;41.90
9271;DHT22;4673;53.458;9.940;2023-05-29T09:27:57;14.00;43.60
9271;DHT22;4673;53.458;9.940;2023-05-29T09:33:00;14.00;40.80
9271;DHT22;4673;53.458;9.940;2023-05-29T09:35:32;14.10;42.20
9271;DHT22;4673;53.458;9.940;2023-05-29T09:37:57;14.30;43.10
9271;DHT22;4673;53.458;9.940;2023-05-29T09:40:23;14.30;42.20
9271;DHT22;4673;53.458;9.940;2023-05-29T09:42:49;14.40;42.80
9271;DHT22;4673;53.458;9.940;2023-05-29T09:45:17;14.50;42.90
9271;DHT22;4673;53.458;9.940;2023-05-29T09:47:43;14.80;42.80
9271;DHT22;4673;53.458;9.940;2023-05-29T09:50:19;15.00;41.70
9271;DHT22;4673;53.458;9.940;2023-05-29T09:52:48;15.00;39.10
9271;DHT22;4673;53.458;9.940;2023-05-29T09:55:20;15.10;39.40
9271;DHT22;4673;53.458;9.940;2023-05-29T09:57:47;15.40;40.50
9271;DHT22;4673;53.458;9.940;2023-05-29T10:00:16;15.70;40.60
9271;DHT22;4673;53.458;9.940;2023-05-29T10:02:42;15.70;39.90
9271;DHT22;4673;53.458;9.940;2023-05-29T10:05:09;15.60;39.80
9271;DHT22;4673;53.458;9.940;2023-05-29T10:07:37;15.80;39.10
9271;DHT22;4673;53.458;9.940;2023-05-29T10:10:08;15.90;37.60
9271;DHT22;4673;53.458;9.940;2023-05-29T10:12:38;16.10;35.90
9271;DHT22;4673;53.458;9.940;2023-05-29T10:15:10;15.90;37.40
9271;DHT22;4673;53.458;9.940;2023-05-29T10:17:37;15.70;37.70
9271;DHT22;4673;53.458;9.940;2023-05-29T10:20:05;15.70;35.40
9271;DHT22;4673;53.458;9.940;2023-05-29T10:22:39;15.80;37.20
9271;DHT22;4673;53.458;9.940;2023-05-29T10:25:08;15.80;37.80
9271;DHT22;4673;53.458;9.940;2023-05-29T10:27:35;15.70;36.00
9271;DHT22;4673;53.458;9.940;2023-05-29T10:30:41;15.70;32.60
9271;DHT22;4673;53.458;9.940;2023-05-29T10:36:17;15.60;31.60
9271;DHT22;4673;53.458;9.940;2023-05-29T10:38:45;15.70;33.80
9271;DHT22;4673;53.458;9.940;2023-05-29T10:43:59;16.10;35.50
9271;DHT22;4673;53.458;9.940;2023-05-29T10:49:20;15.90;31.90
9271;DHT22;4673;53.458;9.940;2023-05-29T10:51:46;15.90;30.80
9271;DHT22;4673;53.458;9.940;2023-05-29T10:54:12;15.60;32.50
9271;DHT22;4673;53.458;9.940;2023-05-29T10:56:44;15.50;35.30
9271;DHT22;4673;53.458;9.940;2023-05-29T10:59:10;15.70;34.80
9271;DHT22;4673;53.458;9.940;2023-05-29T11:01:38;15.90;36.40
9271;DHT22;4673;53.458;9.940;2023-05-29T11:06:46;16.00;35.40
9271;DHT22;4673;53.458;9.940;2023-05-29T11:12:22;16.10;35.90
9271;DHT22;4673;53.458;9.940;2023-05-29T11:15:11;16.30;37.00
9271;DHT22;4673;53.458;9.940;2023-05-29T11:23:03;16.90;32.10
9271;DHT22;4673;53.458;9.940;2023-05-29T11:25:34;17.10;30.50
9271;DHT22;4673;53.458;9.940;2023-05-29T11:28:01;16.90;27.30
9271;DHT22;4673;53.458;9.940;2023-05-29T11:30:29;16.90;30.50
9271;DHT22;4673;53.458;9.940;2023-05-29T11:32:59;16.70;32.70
9271;DHT22;4673;53.458;9.940;2023-05-29T11:35:29;16.90;33.70
9271;DHT22;4673;53.458;9.940;2023-05-29T11:37:57;17.10;31.90
9271;DHT22;4673;53.458;9.940;2023-05-29T11:40:23;17.20;29.10
9271;DHT22;4673;53.458;9.940;2023-05-29T11:42:50;17.20;27.70
9271;DHT22;4673;53.458;9.940;2023-05-29T11:45:18;16.80;29.60
9271;DHT22;4673;53.458;9.940;2023-05-29T11:48:03;16.90;31.20
9271;DHT22;4673;53.458;9.940;2023-05-29T11:50:31;17.10;30.70
9271;DHT22;4673;53.458;9.940;2023-05-29T11:52:58;17.20;32.20
9271;DHT22;4673;53.458;9.940;2023-05-29T11:55:25;17.40;32.00
9271;DHT22;4673;53.458;9.940;2023-05-29T11:57:56;17.60;31.00
9271;DHT22;4673;53.458;9.940;2023-05-29T12:00:23;17.40;27.80
9271;DHT22;4673;53.458;9.940;2023-05-29T12:02:50;17.30;27.70
9271;DHT22;4673;53.458;9.940;2023-05-29T12:05:17;17.40;27.90
9271;DHT22;4673;53.458;9.940;2023-05-29T12:07:51;17.40;24.80
9271;DHT22;4673;53.458;9.940;2023-05-29T12:10:18;17.50;25.30
9271;DHT22;4673;53.458;9.940;2023-05-29T12:12:55;17.60;25.50
9271;DHT22;4673;53.458;9.940;2023-05-29T12:15:21;17.50;26.20
9271;DHT22;4673;53.458;9.940;2023-05-29T12:17:48;17.50;27.40
9271;DHT22;4673;53.458;9.940;2023-05-29T12:20:15;17.50;26.90
9271;DHT22;4673;53.458;9.940;2023-05-29T12:22:43;17.50;26.70
9271;DHT22;4673;53.458;9.940;2023-05-29T12:25:14;17.60;25.80
9271;DHT22;4673;53.458;9.940;2023-05-29T12:27:45;17.80;25.20
9271;DHT22;4673;53.458;9.940;2023-05-29T12:30:19;17.80;21.40
9271;DHT22;4673;53.458;9.940;2023-05-29T12:32:47;17.80;22.30
9271;DHT22;4673;53.458;9.940;2023-05-29T12:35:14;17.70;21.10
9271;DHT22;4673;53.458;9.940;2023-05-29T12:37:47;17.80;22.30
9271;DHT22;4673;53.458;9.940;2023-05-29T12:40:22;17.80;22.40
9271;DHT22;4673;53.458;9.940;2023-05-29T12:42:48;17.80;24.40
9271;DHT22;4673;53.458;9.940;2023-05-29T12:45:17;17.70;26.10
9271;DHT22;4673;53.458;9.940;2023-05-29T12:48:06;17.80;27.80
9271;DHT22;4673;53.458;9.940;2023-05-29T12:50:38;18.00;24.40
9271;DHT22;4673;53.458;9.940;2023-05-29T12:53:11;18.10;25.20
9271;DHT22;4673;53.458;9.940;2023-05-29T12:55:39;18.00;23.50
9271;DHT22;4673;53.458;9.940;2023-05-29T12:58:10;18.00;23.80
9271;DHT22;4673;53.458;9.940;2023-05-29T13:00:37;18.20;25.90
9271;DHT22;4673;53.458;9.940;2023-05-29T13:03:04;18.30;20.10
9271;DHT22;4673;53.458;9.940;2023-05-29T13:05:30;18.20;22.70
9271;DHT22;4673;53.458;9.940;2023-05-29T13:07:56;18.20;21.80
9271;DHT22;4673;53.458;9.940;2023-05-29T13:10:23;18.30;21.50
9271;DHT22;4673;53.458;9.940;2023-05-29T13:12:49;18.30;21.60
9271;DHT22;4673;53.458;9.940;2023-05-29T13:15:20;18.30;21.80
9271;DHT22;4673;53.458;9.940;2023-05-29T13:17:46;18.40;20.60
9271;DHT22;4673;53.458;9.940;2023-05-29T13:20:12;18.60;21.70
9271;DHT22;4673;53.458;9.940;2023-05-29T13:22:39;18.70;22.50
9271;DHT22;4673;53.458;9.940;2023-05-29T13:25:07;18.80;21.40
9271;DHT22;4673;53.458;9.940;2023-05-29T13:27:38;18.40;21.00
9271;DHT22;4673;53.458;9.940;2023-05-29T13:30:04;18.20;21.90
9271;DHT22;4673;53.458;9.940;2023-05-29T13:32:31;18.20;24.50
9271;DHT22;4673;53.458;9.940;2023-05-29T13:34:56;18.40;22.00
9271;DHT22;4673;53.458;9.940;2023-05-29T13:37:22;18.50;20.50
9271;DHT22;4673;53.458;9.940;2023-05-29T13:39:48;18.50;20.60
9271;DHT22;4673;53.458;9.940;2023-05-29T13:42:14;18.20;21.10
9271;DHT22;4673;53.458;9.940;2023-05-29T13:44:39;18.20;24.10
9271;DHT22;4673;53.458;9.940;2023-05-29T13:47:06;18.20;23.00
9271;DHT22;4673;53.458;9.940;2023-05-29T13:49:32;18.20;24.00
9271;DHT22;4673;53.458;9.940;2023-05-29T13:51:58;18.20;24.00
9271;DHT22;4673;53.458;9.940;2023-05-29T13:54:23;18.50;24.40
9271;DHT22;4673;53.458;9.940;2023-05-29T13:56:49;18.80;23.30
9271;DHT22;4673;53.458;9.940;2023-05-29T13:59:14;18.90;21.50
9271;DHT22;4673;53.458;9.940;2023-05-29T14:01:41;18.50;21.00
9271;DHT22;4673;53.458;9.940;2023-05-29T14:04:07;18.40;23.00
9271;DHT22;4673;53.458;9.940;2023-05-29T14:06:33;18.60;24.00
9271;DHT22;4673;53.458;9.940;2023-05-29T14:08:59;18.80;23.30
9271;DHT22;4673;53.458;9.940;2023-05-29T14:11:25;19.00;23.30
9271;DHT22;4673;53.458;9.940;2023-05-29T14:13:52;19.00;21.80
9271;DHT22;4673;53.458;9.940;2023-05-29T14:16:18;19.00;22.10
9271;DHT22;4673;53.458;9.940;2023-05-29T14:18:43;19.00;21.50
9271;DHT22;4673;53.458;9.940;2023-05-29T14:21:09;18.90;22.20
9271;DHT22;4673;53.458;9.940;2023-05-29T14:23:36;18.90;22.40
9271;DHT22;4673;53.458;9.940;2023-05-29T14:26:02;18.90;22.10
9271;DHT22;4673;53.458;9.940;2023-05-29T14:28:28;18.90;22.70
9271;DHT22;4673;53.458;9.940;2023-05-29T14:30:53;18.90;22.90
9271;DHT22;4673;53.458;9.940;2023-05-29T14:33:19;18.90;20.80
9271;DHT22;4673;53.458;9.940;2023-05-29T14:35:44;18.70;22.10
9271;DHT22;4673;53.458;9.940;2023-05-29T14:38:10;18.80;23.40
9271;DHT22;4673;53.458;9.940;2023-05-29T14:40:36;18.90;21.40
9271;DHT22;4673;53.458;9.940;2023-05-29T14:43:02;18.70;22.30
9271;DHT22;4673;53.458;9.940;2023-05-29T14:45:28;18.70;20.90
9271;DHT22;4673;53.458;9.940;2023-05-29T14:47:54;18.50;22.00
9271;DHT22;4673;53.458;9.940;2023-05-29T14:50:20;18.40;23.70
9271;DHT22;4673;53.458;9.940;2023-05-29T14:52:45;18.60;22.70
9271;DHT22;4673;53.458;9.940;2023-05-29T14:55:13;18.70;22.00
9271;DHT22;4673;53.458;9.940;2023-05-29T14:57:41;18.70;20.20
9271;DHT22;4673;53.458;9.940;2023-05-29T15:00:07;18.60;20.70
9271;DHT22;4673;53.458;9.940;2023-05-29T15:02:33;18.70;20.90
9271;DHT22;4673;53.458;9.940;2023-05-29T15:04:59;18.80;20.30
9271;DHT22;4673;53.458;9.940;2023-05-29T15:07:25;18.90;19.70
9271;DHT22;4673;53.458;9.940;2023-05-29T15:09:50;18.80;19.60
9271;DHT22;4673;53.458;9.940;2023-05-29T15:12:16;18.90;20.00
9271;DHT22;4673;53.458;9.940;2023-05-29T15:14:42;18.90;19.50
9271;DHT22;4673;53.458;9.940;2023-05-29T15:17:08;18.70;18.80
9271;DHT22;4673;53.458;9.940;2023-05-29T15:19:34;18.50;20.20
9271;DHT22;4673;53.458;9.940;2023-05-29T15:21:59;18.40;20.60
9271;DHT22;4673;53.458;9.940;2023-05-29T15:24:25;18.20;20.70
9271;DHT22;4673;53.458;9.940;2023-05-29T15:26:50;18.00;21.30
9271;DHT22;4673;53.458;9.940;2023-05-29T15:29:17;18.10;21.60
9271;DHT22;4673;53.458;9.940;2023-05-29T15:31:42;18.20;20.80
9271;DHT22;4673;53.458;9.940;2023-05-29T15:34:08;18.20;21.80
9271;DHT22;4673;53.458;9.940;2023-05-29T15:36:34;18.30;21.00
9271;DHT22;4673;53.458;9.940;2023-05-29T15:39:02;18.30;21.20
9271;DHT22;4673;53.458;9.940;2023-05-29T15:41:28;18.30;19.90
9271;DHT22;4673;53.458;9.940;2023-05-29T15:43:55;18.00;20.50
9271;DHT22;4673;53.458;9.940;2023-05-29T15:46:21;18.00;21.10
9271;DHT22;4673;53.458;9.940;2023-05-29T15:48:47;18.10;21.20
9271;DHT22;4673;53.458;9.940;2023-05-29T15:51:12;18.20;19.80
9271;DHT22;4673;53.458;9.940;2023-05-29T15:53:38;18.20;19.20
9271;DHT22;4673;53.458;9.940;2023-05-29T15:56:04;18.00;20.30
9271;DHT22;4673;53.458;9.940;2023-05-29T15:58:29;18.00;19.70
9271;DHT22;4673;53.458;9.940;2023-05-29T16:00:55;17.90;19.50
9271;DHT22;4673;53.458;9.940;2023-05-29T16:03:21;18.00;19.70
9271;DHT22;4673;53.458;9.940;2023-05-29T16:05:46;18.20;20.10
9271;DHT22;4673;53.458;9.940;2023-05-29T16:08:12;18.30;19.80
9271;DHT22;4673;53.458;9.940;2023-05-29T16:10:38;18.40;19.20
9271;DHT22;4673;53.458;9.940;2023-05-29T16:13:07;18.40;18.70
9271;DHT22;4673;53.458;9.940;2023-05-29T16:15:33;18.40;18.20
9271;DHT22;4673;53.458;9.940;2023-05-29T16:17:58;18.40;18.00
9271;DHT22;4673;53.458;9.940;2023-05-29T16:20:24;18.30;18.00
9271;DHT22;4673;53.458;9.940;2023-05-29T16:22:50;18.00;17.10
9271;DHT22;4673;53.458;9.940;2023-05-29T16:25:16;17.80;17.60
9271;DHT22;4673;53.458;9.940;2023-05-29T16:27:41;17.80;19.00
9271;DHT22;4673;53.458;9.940;2023-05-29T16:30:08;17.80;18.30
9271;DHT22;4673;53.458;9.940;2023-05-29T16:32:34;17.80;18.20
9271;DHT22;4673;53.458;9.940;2023-05-29T16:35:04;17.90;18.50